sensor_id;sensor_type;location;lat;lon;timestamp;P1;durP1;ratioP1;P2;durP2;ratioP2
37151;SDS011;23046;50.112;8.952;2023-08-20T00:00:07;3.70;;;3.40;;
37151;SDS011;23046;50.112;8.952;2023-08-20T00:00:22;3.80;;;3.40;;
37151;SDS011;23046;50.112;8.952;2023-08-20T00:00:32;3.95;;;3.40;;
37151;SDS011;23046;50.112;8.952;2023-08-20T00:00:43;3.80;;;3.40;;
37151;SDS011;23046;50.112;8.952;2023-08-20T00:00:53;3.57;;;3.27;;
37151;SDS011;23046;50.112;8.952;2023-08-20T00:01:04;3.70;;;3.40;;
37151;SDS011;23046;50.112;8.952;2023-08-20T00:01:14;3.90;;;3.60;;
37151;SDS011;23046;50.112;8.952;2023-08-20T00:01:28;4.00;;;3.70;;
37151;SDS011;23046;50.112;8.952;2023-08-20T00:01:38;3.97;;;3.67;;
37151;SDS011;23046;50.112;8.952;2023-08-20T00:01:50;3.80;;;3.50;;
37151;SDS011;23046;50.112;8.952;2023-08-20T00:02:03;4.07;;;3.50;;
37151;SDS011;23046;50.112;8.952;2023-08-20T00:02:14;4.03;;;3.55;;
37151;SDS011;23046;50.112;8.952;2023-08-20T00:02:25;4.03;;;3.40;;
37151;SDS011;23046;50.112;8.952;2023-08-20T00:02:36;3.53;;;3.22;;
37151;SDS011;23046;50.112;8.952;2023-08-20T00:02:47;3.83;;;3.45;;
37151;SDS011;23046;50.112;8.952;2023-08-20T00:03:04;4.35;;;3.70;;
37151;SDS011;23046;50.112;8.952;2023-08-20T00:03:19;3.88;;;3.45;;
37151;SDS011;23046;50.112;8.952;2023-08-20T00:03:29;3.70;;;3.40;;
37151;SDS011;23046;50.112;8.952;2023-08-20T00:03:40;3.70;;;3.40;;
37151;SDS011;23046;50.112;8.952;2023-08-20T00:03:50;3.80;;;3.50;;
37151;SDS011;23046;50.112;8.952;2023-08-20T00:04:01;3.75;;;3.45;;
37151;SDS011;23046;50.112;8.952;2023-08-20T00:04:12;3.80;;;3.50;;
37151;SDS011;23046;50.112;8.952;2023-08-20T00:04:23;3.53;;;3.33;;
37151;SDS011;23046;50.112;8.952;2023-08-20T00:04:35;3.65;;;3.35;;
37151;SDS011;23046;50.112;8.952;2023-08-20T00:04:46;3.90;;;3.60;;
37151;SDS011;23046;50.112;8.952;2023-08-20T00:04:58;4.10;;;3.70;;
37151;SDS011;23046;50.112;8.952;2023-08-20T00:05:09;3.80;;;3.50;;
37151;SDS011;23046;50.112;8.952;2023-08-20T00:05:19;3.70;;;3.40;;
37151;SDS011;23046;50.112;8.952;2023-08-20T00:05:30;3.83;;;3.47;;
37151;SDS011;23046;50.112;8.952;2023-08-20T00:05:40;4.57;;;3.50;;
37151;SDS011;23046;50.112;8.952;2023-08-20T00:05:51;4.57;;;3.47;;
37151;SDS011;23046;50.112;8.952;2023-08-20T00:06:01;3.80;;;3.30;;
37151;SDS011;23046;50.112;8.952;2023-08-20T00:06:14;3.90;;;3.60;;
37151;SDS011;23046;50.112;8.952;2023-08-20T00:06:24;4.55;;;3.50;;
37151;SDS011;23046;50.112;8.952;2023-08-20T00:06:34;4.67;;;3.60;;
37151;SDS011;23046;50.112;8.952;2023-08-20T00:06:45;4.10;;;3.30;;
37151;SDS011;23046;50.112;8.952;2023-08-20T00:06:56;3.72;;;3.42;;
37151;SDS011;23046;50.112;8.952;2023-08-20T00:07:06;3.63;;;3.33;;
37151;SDS011;23046;50.112;8.952;2023-08-20T00:07:17;3.85;;;3.55;;
37151;SDS011;23046;50.112;8.952;2023-08-20T00:07:28;3.85;;;3.55;;
37151;SDS011;23046;50.112;8.952;2023-08-20T00:07:39;4.03;;;3.73;;
37151;SDS011;23046;50.112;8.952;2023-08-20T00:07:49;3.88;;;3.58;;
37151;SDS011;23046;50.112;8.952;2023-08-20T00:07:59;4.03;;;3.70;;
37151;SDS011;23046;50.112;8.952;2023-08-20T00:08:09;4.10;;;3.70;;
37151;SDS011;23046;50.112;8.952;2023-08-20T00:08:19;4.80;;;3.60;;
37151;SDS011;23046;50.112;8.952;2023-08-20T00:08:30;4.63;;;3.47;;
37151;SDS011;23046;50.112;8.952;2023-08-20T00:08:40;4.00;;;3.28;;
37151;SDS011;23046;50.112;8.952;2023-08-20T00:08:50;3.67;;;3.37;;
37151;SDS011;23046;50.112;8.952;2023-08-20T00:09:00;3.60;;;3.30;;
37151;SDS011;23046;50.112;8.952;2023-08-20T00:09:10;3.67;;;3.33;;
37151;SDS011;23046;50.112;8.952;2023-08-20T00:09:21;3.70;;;3.30;;
37151;SDS011;23046;50.112;8.952;2023-08-20T00:09:31;3.70;;;3.40;;
37151;SDS011;23046;50.112;8.952;2023-08-20T00:09:43;4.05;;;3.50;;
37151;SDS011;23046;50.112;8.952;2023-08-20T00:09:53;3.70;;;3.40;;
37151;SDS011;23046;50.112;8.952;2023-08-20T00:10:03;3.83;;;3.40;;
37151;SDS011;23046;50.112;8.952;2023-08-20T00:10:14;3.80;;;3.40;;
37151;SDS011;23046;50.112;8.952;2023-08-20T00:10:24;4.53;;;3.57;;
37151;SDS011;23046;50.112;8.952;2023-08-20T00:10:34;4.50;;;3.50;;
37151;SDS011;23046;50.112;8.952;2023-08-20T00:10:44;4.50;;;3.60;;
37151;SDS011;23046;50.112;8.952;2023-08-20T00:10:55;4.10;;;3.67;;
37151;SDS011;23046;50.112;8.952;2023-08-20T00:11:05;4.10;;;3.70;;
37151;SDS011;23046;50.112;8.952;2023-08-20T00:11:15;4.30;;;3.55;;
37151;SDS011;23046;50.112;8.952;2023-08-20T00:11:26;3.93;;;3.53;;
37151;SDS011;23046;50.112;8.952;2023-08-20T00:11:36;4.00;;;3.60;;
37151;SDS011;23046;50.112;8.952;2023-08-20T00:11:46;3.85;;;3.55;;
37151;SDS011;23046;50.112;8.952;2023-08-20T00:11:56;4.00;;;3.60;;
37151;SDS011;23046;50.112;8.952;2023-08-20T00:12:07;4.10;;;3.80;;
37151;SDS011;23046;50.112;8.952;2023-08-20T00:12:17;4.10;;;3.80;;
37151;SDS011;23046;50.112;8.952;2023-08-20T00:12:27;4.07;;;3.77;;
37151;SDS011;23046;50.112;8.952;2023-08-20T00:12:37;4.03;;;3.65;;
37151;SDS011;23046;50.112;8.952;2023-08-20T00:12:47;4.30;;;3.70;;
37151;SDS011;23046;50.112;8.952;2023-08-20T00:12:58;4.30;;;3.70;;
37151;SDS011;23046;50.112;8.952;2023-08-20T00:13:08;4.93;;;3.77;;
37151;SDS011;23046;50.112;8.952;2023-08-20T00:13:18;4.78;;;3.67;;
37151;SDS011;23046;50.112;8.952;2023-08-20T00:13:28;4.97;;;3.80;;
37151;SDS011;23046;50.112;8.952;2023-08-20T00:13:39;3.83;;;3.53;;
37151;SDS011;23046;50.112;8.952;2023-08-20T00:13:49;3.90;;;3.60;;
37151;SDS011;23046;50.112;8.952;2023-08-20T00:13:59;3.67;;;3.37;;
37151;SDS011;23046;50.112;8.952;2023-08-20T00:14:15;3.80;;;3.50;;
37151;SDS011;23046;50.112;8.952;2023-08-20T00:14:51;3.75;;;3.45;;
37151;SDS011;23046;50.112;8.952;2023-08-20T00:15:02;3.75;;;3.45;;
37151;SDS011;23046;50.112;8.952;2023-08-20T00:15:15;3.97;;;3.60;;
37151;SDS011;23046;50.112;8.952;2023-08-20T00:15:26;4.57;;;3.63;;
37151;SDS011;23046;50.112;8.952;2023-08-20T00:15:39;4.28;;;3.55;;
37151;SDS011;23046;50.112;8.952;2023-08-20T00:15:49;3.80;;;3.50;;
37151;SDS011;23046;50.112;8.952;2023-08-20T00:15:59;3.97;;;3.57;;
37151;SDS011;23046;50.112;8.952;2023-08-20T00:16:10;4.85;;;3.53;;
37151;SDS011;23046;50.112;8.952;2023-08-20T00:16:20;5.27;;;3.70;;
37151;SDS011;23046;50.112;8.952;2023-08-20T00:16:30;4.20;;;3.70;;
37151;SDS011;23046;50.112;8.952;2023-08-20T00:16:41;4.13;;;3.83;;
37151;SDS011;23046;50.112;8.952;2023-08-20T00:16:51;4.20;;;3.80;;
37151;SDS011;23046;50.112;8.952;2023-08-20T00:17:01;4.20;;;3.80;;
37151;SDS011;23046;50.112;8.952;2023-08-20T00:17:12;4.13;;;3.72;;
37151;SDS011;23046;50.112;8.952;2023-08-20T00:17:22;4.07;;;3.77;;
37151;SDS011;23046;50.112;8.952;2023-08-20T00:17:35;4.00;;;3.70;;
37151;SDS011;23046;50.112;8.952;2023-08-20T00:17:46;4.00;;;3.60;;
37151;SDS011;23046;50.112;8.952;2023-08-20T00:17:57;3.80;;;3.40;;
37151;SDS011;23046;50.112;8.952;2023-08-20T00:18:07;4.55;;;3.38;;
37151;SDS011;23046;50.112;8.952;2023-08-20T00:18:18;3.97;;;3.40;;
37151;SDS011;23046;50.112;8.952;2023-08-20T00:18:28;4.20;;;3.42;;
37151;SDS011;23046;50.112;8.952;2023-08-20T00:18:38;3.93;;;3.57;;
37151;SDS011;23046;50.112;8.952;2023-08-20T00:18:49;3.80;;;3.47;;
37151;SDS011;23046;50.112;8.952;2023-08-20T00:18:59;3.90;;;3.60;;
37151;SDS011;23046;50.112;8.952;2023-08-20T00:19:10;3.80;;;3.47;;
37151;SDS011;23046;50.112;8.952;2023-08-20T00:19:21;4.07;;;3.65;;
37151;SDS011;23046;50.112;8.952;2023-08-20T00:19:31;4.85;;;3.70;;
37151;SDS011;23046;50.112;8.952;2023-08-20T00:19:41;5.43;;;3.80;;
37151;SDS011;23046;50.112;8.952;2023-08-20T00:19:52;5.13;;;3.63;;
37151;SDS011;23046;50.112;8.952;2023-08-20T00:20:03;4.07;;;3.53;;
37151;SDS011;23046;50.112;8.952;2023-08-20T00:20:20;3.80;;;3.50;;
37151;SDS011;23046;50.112;8.952;2023-08-20T00:20:30;4.18;;;3.75;;
37151;SDS011;23046;50.112;8.952;2023-08-20T00:20:41;4.27;;;3.80;;
37151;SDS011;23046;50.112;8.952;2023-08-20T00:20:51;4.22;;;3.83;;
37151;SDS011;23046;50.112;8.952;2023-08-20T00:21:02;4.05;;;3.70;;
37151;SDS011;23046;50.112;8.952;2023-08-20T00:21:14;3.90;;;3.60;;
37151;SDS011;23046;50.112;8.952;2023-08-20T00:21:24;3.73;;;3.40;;
37151;SDS011;23046;50.112;8.952;2023-08-20T00:21:39;3.50;;;3.20;;
37151;SDS011;23046;50.112;8.952;2023-08-20T00:21:50;3.78;;;3.45;;
37151;SDS011;23046;50.112;8.952;2023-08-20T00:22:01;4.07;;;3.77;;
37151;SDS011;23046;50.112;8.952;2023-08-20T00:22:11;4.13;;;3.80;;
37151;SDS011;23046;50.112;8.952;2023-08-20T00:22:22;4.13;;;3.75;;
37151;SDS011;23046;50.112;8.952;2023-08-20T00:22:32;4.18;;;3.53;;
37151;SDS011;23046;50.112;8.952;2023-08-20T00:22:43;4.17;;;3.60;;
37151;SDS011;23046;50.112;8.952;2023-08-20T00:22:55;5.07;;;3.47;;
37151;SDS011;23046;50.112;8.952;2023-08-20T00:23:05;4.30;;;3.60;;
37151;SDS011;23046;50.112;8.952;2023-08-20T00:23:15;3.95;;;3.60;;
37151;SDS011;23046;50.112;8.952;2023-08-20T00:23:26;3.97;;;3.67;;
37151;SDS011;23046;50.112;8.952;2023-08-20T00:23:36;3.92;;;3.60;;
37151;SDS011;23046;50.112;8.952;2023-08-20T00:23:47;4.90;;;3.60;;
37151;SDS011;23046;50.112;8.952;2023-08-20T00:23:57;5.80;;;3.70;;
37151;SDS011;23046;50.112;8.952;2023-08-20T00:24:07;5.23;;;3.80;;
37151;SDS011;23046;50.112;8.952;2023-08-20T00:24:18;4.88;;;3.70;;
37151;SDS011;23046;50.112;8.952;2023-08-20T00:24:28;4.73;;;3.60;;
37151;SDS011;23046;50.112;8.952;2023-08-20T00:24:39;4.80;;;3.63;;
37151;SDS011;23046;50.112;8.952;2023-08-20T00:24:49;4.10;;;3.70;;
37151;SDS011;23046;50.112;8.952;2023-08-20T00:25:00;4.25;;;3.67;;
37151;SDS011;23046;50.112;8.952;2023-08-20T00:25:11;4.13;;;3.67;;
37151;SDS011;23046;50.112;8.952;2023-08-20T00:25:21;4.47;;;3.60;;
37151;SDS011;23046;50.112;8.952;2023-08-20T00:25:31;3.77;;;3.47;;
37151;SDS011;23046;50.112;8.952;2023-08-20T00:25:42;3.83;;;3.42;;
37151;SDS011;23046;50.112;8.952;2023-08-20T00:25:54;4.10;;;3.70;;
37151;SDS011;23046;50.112;8.952;2023-08-20T00:26:04;4.10;;;3.70;;
37151;SDS011;23046;50.112;8.952;2023-08-20T00:26:14;4.00;;;3.60;;
37151;SDS011;23046;50.112;8.952;2023-08-20T00:26:25;3.72;;;3.42;;
37151;SDS011;23046;50.112;8.952;2023-08-20T00:26:35;3.70;;;3.40;;
37151;SDS011;23046;50.112;8.952;2023-08-20T00:26:45;3.67;;;3.37;;
37151;SDS011;23046;50.112;8.952;2023-08-20T00:26:55;3.80;;;3.40;;
37151;SDS011;23046;50.112;8.952;2023-08-20T00:27:06;3.60;;;3.30;;
37151;SDS011;23046;50.112;8.952;2023-08-20T00:27:16;3.90;;;3.47;;
37151;SDS011;23046;50.112;8.952;2023-08-20T00:27:26;4.20;;;3.47;;
37151;SDS011;23046;50.112;8.952;2023-08-20T00:27:36;4.07;;;3.60;;
37151;SDS011;23046;50.112;8.952;2023-08-20T00:27:47;4.32;;;3.60;;
37151;SDS011;23046;50.112;8.952;2023-08-20T00:27:57;4.00;;;3.60;;
37151;SDS011;23046;50.112;8.952;2023-08-20T00:28:07;4.13;;;3.63;;
37151;SDS011;23046;50.112;8.952;2023-08-20T00:28:19;4.10;;;3.67;;
37151;SDS011;23046;50.112;8.952;2023-08-20T00:28:29;4.53;;;3.80;;
37151;SDS011;23046;50.112;8.952;2023-08-20T00:28:39;5.47;;;3.60;;
37151;SDS011;23046;50.112;8.952;2023-08-20T00:28:50;6.28;;;3.60;;
37151;SDS011;23046;50.112;8.952;2023-08-20T00:29:00;6.93;;;3.43;;
37151;SDS011;23046;50.112;8.952;2023-08-20T00:29:10;6.87;;;3.50;;
37151;SDS011;23046;50.112;8.952;2023-08-20T00:29:20;5.60;;;3.30;;
37151;SDS011;23046;50.112;8.952;2023-08-20T00:29:31;4.10;;;3.40;;
37151;SDS011;23046;50.112;8.952;2023-08-20T00:29:41;3.80;;;3.57;;
37151;SDS011;23046;50.112;8.952;2023-08-20T00:29:51;4.07;;;3.77;;
37151;SDS011;23046;50.112;8.952;2023-08-20T00:30:02;4.73;;;3.80;;
37151;SDS011;23046;50.112;8.952;2023-08-20T00:30:13;4.60;;;3.53;;
37151;SDS011;23046;50.112;8.952;2023-08-20T00:30:24;4.28;;;3.40;;
37151;SDS011;23046;50.112;8.952;2023-08-20T00:30:36;3.78;;;3.47;;
37151;SDS011;23046;50.112;8.952;2023-08-20T00:30:46;3.75;;;3.38;;
37151;SDS011;23046;50.112;8.952;2023-08-20T00:30:56;3.77;;;3.47;;
37151;SDS011;23046;50.112;8.952;2023-08-20T00:31:06;3.70;;;3.40;;
37151;SDS011;23046;50.112;8.952;2023-08-20T00:31:17;3.70;;;3.40;;
37151;SDS011;23046;50.112;8.952;2023-08-20T00:31:27;3.80;;;3.50;;
37151;SDS011;23046;50.112;8.952;2023-08-20T00:31:37;3.83;;;3.47;;
37151;SDS011;23046;50.112;8.952;2023-08-20T00:31:48;4.63;;;3.63;;
37151;SDS011;23046;50.112;8.952;2023-08-20T00:31:58;6.53;;;3.60;;
37151;SDS011;23046;50.112;8.952;2023-08-20T00:32:08;5.85;;;3.55;;
37151;SDS011;23046;50.112;8.952;2023-08-20T00:32:19;5.07;;;3.47;;
37151;SDS011;23046;50.112;8.952;2023-08-20T00:32:29;3.80;;;3.50;;
37151;SDS011;23046;50.112;8.952;2023-08-20T00:32:39;4.00;;;3.60;;
37151;SDS011;23046;50.112;8.952;2023-08-20T00:32:49;3.83;;;3.50;;
37151;SDS011;23046;50.112;8.952;2023-08-20T00:33:00;3.93;;;3.60;;
37151;SDS011;23046;50.112;8.952;2023-08-20T00:33:10;3.80;;;3.50;;
37151;SDS011;23046;50.112;8.952;2023-08-20T00:33:20;4.27;;;3.53;;
37151;SDS011;23046;50.112;8.952;2023-08-20T00:33:33;3.83;;;3.33;;
37151;SDS011;23046;50.112;8.952;2023-08-20T00:33:44;4.18;;;3.38;;
37151;SDS011;23046;50.112;8.952;2023-08-20T00:33:54;3.63;;;3.33;;
37151;SDS011;23046;50.112;8.952;2023-08-20T00:34:05;3.70;;;3.38;;
37151;SDS011;23046;50.112;8.952;2023-08-20T00:34:15;3.63;;;3.33;;
37151;SDS011;23046;50.112;8.952;2023-08-20T00:34:25;3.57;;;3.37;;
37151;SDS011;23046;50.112;8.952;2023-08-20T00:34:35;3.60;;;3.30;;
37151;SDS011;23046;50.112;8.952;2023-08-20T00:34:45;3.45;;;3.20;;
37151;SDS011;23046;50.112;8.952;2023-08-20T00:34:56;3.30;;;3.10;;
37151;SDS011;23046;50.112;8.952;2023-08-20T00:35:06;3.30;;;3.10;;
37151;SDS011;23046;50.112;8.952;2023-08-20T00:35:20;3.58;;;3.28;;
37151;SDS011;23046;50.112;8.952;2023-08-20T00:35:31;3.97;;;3.17;;
37151;SDS011;23046;50.112;8.952;2023-08-20T00:35:41;4.83;;;3.30;;
37151;SDS011;23046;50.112;8.952;2023-08-20T00:35:52;4.88;;;3.33;;
37151;SDS011;23046;50.112;8.952;2023-08-20T00:36:02;4.20;;;3.80;;
37151;SDS011;23046;50.112;8.952;2023-08-20T00:36:13;4.38;;;3.90;;
37151;SDS011;23046;50.112;8.952;2023-08-20T00:36:23;4.43;;;3.83;;
37151;SDS011;23046;50.112;8.952;2023-08-20T00:36:33;3.90;;;3.50;;
37151;SDS011;23046;50.112;8.952;2023-08-20T00:36:43;3.90;;;3.50;;
37151;SDS011;23046;50.112;8.952;2023-08-20T00:36:53;3.97;;;3.57;;
37151;SDS011;23046;50.112;8.952;2023-08-20T00:37:03;3.90;;;3.50;;
37151;SDS011;23046;50.112;8.952;2023-08-20T00:37:14;3.80;;;3.50;;
37151;SDS011;23046;50.112;8.952;2023-08-20T00:37:25;8.87;;;3.60;;
37151;SDS011;23046;50.112;8.952;2023-08-20T00:37:35;8.88;;;3.65;;
37151;SDS011;23046;50.112;8.952;2023-08-20T00:37:45;8.87;;;3.60;;
37151;SDS011;23046;50.112;8.952;2023-08-20T00:37:56;3.88;;;3.58;;
37151;SDS011;23046;50.112;8.952;2023-08-20T00:38:06;3.93;;;3.63;;
37151;SDS011;23046;50.112;8.952;2023-08-20T00:38:16;4.07;;;3.73;;
37151;SDS011;23046;50.112;8.952;2023-08-20T00:38:27;3.93;;;3.63;;
37151;SDS011;23046;50.112;8.952;2023-08-20T00:38:38;3.88;;;3.58;;
37151;SDS011;23046;50.112;8.952;2023-08-20T00:38:48;3.80;;;3.40;;
37151;SDS011;23046;50.112;8.952;2023-08-20T00:38:58;3.97;;;3.40;;
37151;SDS011;23046;50.112;8.952;2023-08-20T00:39:08;3.90;;;3.47;;
37151;SDS011;23046;50.112;8.952;2023-08-20T00:39:18;3.80;;;3.40;;
37151;SDS011;23046;50.112;8.952;2023-08-20T00:39:29;3.93;;;3.50;;
37151;SDS011;23046;50.112;8.952;2023-08-20T00:39:39;3.90;;;3.50;;
37151;SDS011;23046;50.112;8.952;2023-08-20T00:39:49;3.87;;;3.57;;
37151;SDS011;23046;50.112;8.952;2023-08-20T00:40:00;4.53;;;3.60;;
37151;SDS011;23046;50.112;8.952;2023-08-20T00:40:10;4.70;;;3.60;;
37151;SDS011;23046;50.112;8.952;2023-08-20T00:40:20;4.47;;;3.53;;
37151;SDS011;23046;50.112;8.952;2023-08-20T00:40:31;4.70;;;3.63;;
37151;SDS011;23046;50.112;8.952;2023-08-20T00:40:41;4.45;;;3.65;;
37151;SDS011;23046;50.112;8.952;2023-08-20T00:40:52;4.27;;;3.67;;
37151;SDS011;23046;50.112;8.952;2023-08-20T00:41:02;3.73;;;3.43;;
37151;SDS011;23046;50.112;8.952;2023-08-20T00:41:12;3.70;;;3.40;;
37151;SDS011;23046;50.112;8.952;2023-08-20T00:41:23;3.80;;;3.50;;
37151;SDS011;23046;50.112;8.952;2023-08-20T00:41:33;3.70;;;3.40;;
37151;SDS011;23046;50.112;8.952;2023-08-20T00:41:43;3.90;;;3.60;;
37151;SDS011;23046;50.112;8.952;2023-08-20T00:41:53;3.90;;;3.58;;
37151;SDS011;23046;50.112;8.952;2023-08-20T00:42:03;4.10;;;3.70;;
37151;SDS011;23046;50.112;8.952;2023-08-20T00:42:14;3.93;;;3.53;;
37151;SDS011;23046;50.112;8.952;2023-08-20T00:42:24;3.67;;;3.35;;
37151;SDS011;23046;50.112;8.952;2023-08-20T00:42:37;3.83;;;3.53;;
37151;SDS011;23046;50.112;8.952;2023-08-20T00:42:48;3.93;;;3.63;;
37151;SDS011;23046;50.112;8.952;2023-08-20T00:42:58;4.03;;;3.70;;
37151;SDS011;23046;50.112;8.952;2023-08-20T00:43:08;3.75;;;3.45;;
37151;SDS011;23046;50.112;8.952;2023-08-20T00:43:18;3.67;;;3.37;;
37151;SDS011;23046;50.112;8.952;2023-08-20T00:43:29;3.47;;;3.20;;
37151;SDS011;23046;50.112;8.952;2023-08-20T00:43:39;3.60;;;3.37;;
37151;SDS011;23046;50.112;8.952;2023-08-20T00:43:49;3.65;;;3.42;;
37151;SDS011;23046;50.112;8.952;2023-08-20T00:44:00;3.77;;;3.47;;
37151;SDS011;23046;50.112;8.952;2023-08-20T00:44:11;3.65;;;3.35;;
37151;SDS011;23046;50.112;8.952;2023-08-20T00:44:21;3.80;;;3.50;;
37151;SDS011;23046;50.112;8.952;2023-08-20T00:44:32;3.80;;;3.50;;
37151;SDS011;23046;50.112;8.952;2023-08-20T00:44:42;3.70;;;3.40;;
37151;SDS011;23046;50.112;8.952;2023-08-20T00:44:54;3.47;;;3.17;;
37151;SDS011;23046;50.112;8.952;2023-08-20T00:45:05;3.60;;;3.30;;
37151;SDS011;23046;50.112;8.952;2023-08-20T00:45:15;4.18;;;3.45;;
37151;SDS011;23046;50.112;8.952;2023-08-20T00:45:27;4.35;;;3.70;;
37151;SDS011;23046;50.112;8.952;2023-08-20T00:45:37;4.30;;;3.72;;
37151;SDS011;23046;50.112;8.952;2023-08-20T00:45:48;4.00;;;3.60;;
37151;SDS011;23046;50.112;8.952;2023-08-20T00:45:59;4.13;;;3.72;;
37151;SDS011;23046;50.112;8.952;2023-08-20T00:46:09;4.10;;;3.70;;
37151;SDS011;23046;50.112;8.952;2023-08-20T00:46:19;4.20;;;3.80;;
37151;SDS011;23046;50.112;8.952;2023-08-20T00:46:30;4.30;;;3.63;;
37151;SDS011;23046;50.112;8.952;2023-08-20T00:46:40;4.00;;;3.60;;
37151;SDS011;23046;50.112;8.952;2023-08-20T00:46:51;3.70;;;3.40;;
37151;SDS011;23046;50.112;8.952;2023-08-20T00:47:02;3.70;;;3.40;;
37151;SDS011;23046;50.112;8.952;2023-08-20T00:47:14;3.65;;;3.38;;
37151;SDS011;23046;50.112;8.952;2023-08-20T00:47:24;3.73;;;3.43;;
37151;SDS011;23046;50.112;8.952;2023-08-20T00:47:35;3.83;;;3.53;;
37151;SDS011;23046;50.112;8.952;2023-08-20T00:47:45;3.87;;;3.57;;
37151;SDS011;23046;50.112;8.952;2023-08-20T00:47:56;3.90;;;3.60;;
37151;SDS011;23046;50.112;8.952;2023-08-20T00:48:06;3.70;;;3.40;;
37151;SDS011;23046;50.112;8.952;2023-08-20T00:48:17;3.60;;;3.30;;
37151;SDS011;23046;50.112;8.952;2023-08-20T00:48:27;3.78;;;3.42;;
37151;SDS011;23046;50.112;8.952;2023-08-20T00:48:37;3.93;;;3.50;;
37151;SDS011;23046;50.112;8.952;2023-08-20T00:48:49;4.18;;;3.60;;
37151;SDS011;23046;50.112;8.952;2023-08-20T00:48:59;4.00;;;3.37;;
37151;SDS011;23046;50.112;8.952;2023-08-20T00:49:10;4.03;;;3.45;;
37151;SDS011;23046;50.112;8.952;2023-08-20T00:49:21;4.00;;;3.50;;
37151;SDS011;23046;50.112;8.952;2023-08-20T00:49:31;3.90;;;3.60;;
37151;SDS011;23046;50.112;8.952;2023-08-20T00:49:41;3.83;;;3.53;;
37151;SDS011;23046;50.112;8.952;2023-08-20T00:49:52;3.67;;;3.37;;
37151;SDS011;23046;50.112;8.952;2023-08-20T00:50:02;3.55;;;3.33;;
37151;SDS011;23046;50.112;8.952;2023-08-20T00:50:16;3.90;;;3.60;;
37151;SDS011;23046;50.112;8.952;2023-08-20T00:50:26;4.23;;;3.57;;
37151;SDS011;23046;50.112;8.952;2023-08-20T00:50:37;4.30;;;3.55;;
37151;SDS011;23046;50.112;8.952;2023-08-20T00:50:49;4.03;;;3.60;;
37151;SDS011;23046;50.112;8.952;2023-08-20T00:50:59;4.03;;;3.63;;
37151;SDS011;23046;50.112;8.952;2023-08-20T00:51:09;4.25;;;3.75;;
37151;SDS011;23046;50.112;8.952;2023-08-20T00:51:19;4.03;;;3.50;;
37151;SDS011;23046;50.112;8.952;2023-08-20T00:51:32;4.00;;;3.60;;
37151;SDS011;23046;50.112;8.952;2023-08-20T00:51:42;3.92;;;3.63;;
37151;SDS011;23046;50.112;8.952;2023-08-20T00:51:53;4.10;;;3.70;;
37151;SDS011;23046;50.112;8.952;2023-08-20T00:52:03;4.93;;;3.87;;
37151;SDS011;23046;50.112;8.952;2023-08-20T00:52:15;4.50;;;3.70;;
37151;SDS011;23046;50.112;8.952;2023-08-20T00:52:26;4.43;;;3.78;;
37151;SDS011;23046;50.112;8.952;2023-08-20T00:52:36;4.15;;;3.80;;
37151;SDS011;23046;50.112;8.952;2023-08-20T00:52:47;4.38;;;3.97;;
37151;SDS011;23046;50.112;8.952;2023-08-20T00:52:57;4.47;;;4.07;;
37151;SDS011;23046;50.112;8.952;2023-08-20T00:53:08;4.13;;;3.73;;
37151;SDS011;23046;50.112;8.952;2023-08-20T00:53:20;3.85;;;3.53;;
37151;SDS011;23046;50.112;8.952;2023-08-20T00:53:30;3.83;;;3.53;;
37151;SDS011;23046;50.112;8.952;2023-08-20T00:53:41;3.97;;;3.67;;
37151;SDS011;23046;50.112;8.952;2023-08-20T00:53:51;3.90;;;3.60;;
37151;SDS011;23046;50.112;8.952;2023-08-20T00:54:01;4.20;;;3.60;;
37151;SDS011;23046;50.112;8.952;2023-08-20T00:54:12;4.22;;;3.60;;
37151;SDS011;23046;50.112;8.952;2023-08-20T00:54:22;4.47;;;3.63;;
37151;SDS011;23046;50.112;8.952;2023-08-20T00:54:33;4.13;;;3.73;;
37151;SDS011;23046;50.112;8.952;2023-08-20T00:54:47;4.35;;;3.80;;
37151;SDS011;23046;50.112;8.952;2023-08-20T00:54:57;4.10;;;3.70;;
37151;SDS011;23046;50.112;8.952;2023-08-20T00:55:08;4.07;;;3.67;;
37151;SDS011;23046;50.112;8.952;2023-08-20T00:55:19;3.95;;;3.55;;
37151;SDS011;23046;50.112;8.952;2023-08-20T00:55:29;3.70;;;3.40;;
37151;SDS011;23046;50.112;8.952;2023-08-20T00:55:41;3.83;;;3.53;;
37151;SDS011;23046;50.112;8.952;2023-08-20T00:55:52;3.85;;;3.55;;
37151;SDS011;23046;50.112;8.952;2023-08-20T00:56:02;3.93;;;3.63;;
37151;SDS011;23046;50.112;8.952;2023-08-20T00:56:12;3.92;;;3.63;;
37151;SDS011;23046;50.112;8.952;2023-08-20T00:56:23;4.00;;;3.70;;
37151;SDS011;23046;50.112;8.952;2023-08-20T00:56:33;4.27;;;3.90;;
37151;SDS011;23046;50.112;8.952;2023-08-20T00:56:43;4.40;;;4.00;;
37151;SDS011;23046;50.112;8.952;2023-08-20T00:56:54;4.32;;;3.92;;
37151;SDS011;23046;50.112;8.952;2023-08-20T00:57:05;4.13;;;3.80;;
37151;SDS011;23046;50.112;8.952;2023-08-20T00:57:19;4.10;;;3.75;;
37151;SDS011;23046;50.112;8.952;2023-08-20T00:57:29;4.10;;;3.70;;
37151;SDS011;23046;50.112;8.952;2023-08-20T00:57:40;4.78;;;3.70;;
37151;SDS011;23046;50.112;8.952;2023-08-20T00:57:51;4.32;;;3.42;;
37151;SDS011;23046;50.112;8.952;2023-08-20T00:58:01;4.53;;;3.50;;
37151;SDS011;23046;50.112;8.952;2023-08-20T00:58:12;4.05;;;3.30;;
37151;SDS011;23046;50.112;8.952;2023-08-20T00:58:22;3.70;;;3.40;;
37151;SDS011;23046;50.112;8.952;2023-08-20T00:58:32;3.60;;;3.30;;
37151;SDS011;23046;50.112;8.952;2023-08-20T00:58:43;3.53;;;3.22;;
37151;SDS011;23046;50.112;8.952;2023-08-20T00:58:54;3.60;;;3.30;;
37151;SDS011;23046;50.112;8.952;2023-08-20T00:59:04;3.88;;;3.40;;
37151;SDS011;23046;50.112;8.952;2023-08-20T00:59:15;4.07;;;3.42;;
37151;SDS011;23046;50.112;8.952;2023-08-20T00:59:26;4.97;;;3.40;;
37151;SDS011;23046;50.112;8.952;2023-08-20T00:59:36;4.63;;;3.42;;
37151;SDS011;23046;50.112;8.952;2023-08-20T00:59:47;4.47;;;3.53;;
37151;SDS011;23046;50.112;8.952;2023-08-20T00:59:58;3.58;;;3.33;;
37151;SDS011;23046;50.112;8.952;2023-08-20T01:00:09;3.90;;;3.40;;
37151;SDS011;23046;50.112;8.952;2023-08-20T01:00:20;3.70;;;3.20;;
37151;SDS011;23046;50.112;8.952;2023-08-20T01:00:31;3.78;;;3.38;;
37151;SDS011;23046;50.112;8.952;2023-08-20T01:00:42;3.77;;;3.47;;
37151;SDS011;23046;50.112;8.952;2023-08-20T01:00:52;4.07;;;3.67;;
37151;SDS011;23046;50.112;8.952;2023-08-20T01:01:02;3.80;;;3.50;;
37151;SDS011;23046;50.112;8.952;2023-08-20T01:01:12;4.10;;;3.40;;
37151;SDS011;23046;50.112;8.952;2023-08-20T01:01:22;4.97;;;3.50;;
37151;SDS011;23046;50.112;8.952;2023-08-20T01:01:33;5.97;;;3.83;;
37151;SDS011;23046;50.112;8.952;2023-08-20T01:01:43;4.60;;;3.80;;
37151;SDS011;23046;50.112;8.952;2023-08-20T01:01:54;3.90;;;3.60;;
37151;SDS011;23046;50.112;8.952;2023-08-20T01:02:04;3.83;;;3.53;;
37151;SDS011;23046;50.112;8.952;2023-08-20T01:02:16;3.85;;;3.50;;
37151;SDS011;23046;50.112;8.952;2023-08-20T01:02:27;4.20;;;3.80;;
37151;SDS011;23046;50.112;8.952;2023-08-20T01:02:38;4.47;;;3.88;;
37151;SDS011;23046;50.112;8.952;2023-08-20T01:02:49;4.53;;;3.90;;
37151;SDS011;23046;50.112;8.952;2023-08-20T01:03:00;4.18;;;3.47;;
37151;SDS011;23046;50.112;8.952;2023-08-20T01:03:11;3.73;;;3.40;;
37151;SDS011;23046;50.112;8.952;2023-08-20T01:03:21;3.50;;;3.30;;
37151;SDS011;23046;50.112;8.952;2023-08-20T01:03:31;3.63;;;3.35;;
37151;SDS011;23046;50.112;8.952;2023-08-20T01:03:41;3.60;;;3.30;;
37151;SDS011;23046;50.112;8.952;2023-08-20T01:03:51;3.97;;;3.60;;
37151;SDS011;23046;50.112;8.952;2023-08-20T01:04:02;4.32;;;3.50;;
37151;SDS011;23046;50.112;8.952;2023-08-20T01:04:13;4.67;;;3.60;;
37151;SDS011;23046;50.112;8.952;2023-08-20T01:04:23;3.93;;;3.43;;
37151;SDS011;23046;50.112;8.952;2023-08-20T01:04:34;3.78;;;3.40;;
37151;SDS011;23046;50.112;8.952;2023-08-20T01:04:45;3.60;;;3.30;;
37151;SDS011;23046;50.112;8.952;2023-08-20T01:04:56;3.80;;;3.40;;